createdAt,value
2022-12-18T00:14:50.414Z,-8.6
2022-12-18T00:24:50.649Z,-8.7
2022-12-18T00:34:51.416Z,-8.8
2022-12-18T00:44:51.927Z,-8.6
2022-12-18T00:54:52.356Z,-8.6
2022-12-18T01:04:52.772Z,-8.7
2022-12-18T01:14:53.163Z,-8.9
2022-12-18T01:24:53.422Z,-9
2022-12-18T01:34:54.267Z,-8.9
2022-12-18T01:44:54.823Z,-8.9
2022-12-18T01:54:55.038Z,-8.9
2022-12-18T02:04:55.165Z,-8.9
2022-12-18T02:24:56.648Z,-9
2022-12-18T02:34:57.710Z,-8.9
2022-12-18T03:04:59.324Z,-9.5
2022-12-18T03:14:59.673Z,-9.5
2022-12-18T03:25:00.120Z,-9.5
2022-12-18T03:45:00.368Z,-9.3
2022-12-18T03:55:00.500Z,-9.5
2022-12-18T04:05:00.607Z,-9.6
2022-12-18T04:15:01.470Z,-9.7
2022-12-18T04:25:01.639Z,-9.6
2022-12-18T04:35:08.856Z,-9.4
2022-12-18T04:45:02.116Z,-9.3
2022-12-18T04:55:02.727Z,-9.4
2022-12-18T05:05:10.130Z,-9.3
2022-12-18T05:15:03.818Z,-9.3
2022-12-18T05:25:03.892Z,-9.3
2022-12-18T05:45:04.536Z,-9.4
2022-12-18T05:55:05.015Z,-9.9
2022-12-18T06:25:06.881Z,-10.1
2022-12-18T06:35:07.036Z,-10.2
2022-12-18T06:45:08.045Z,-10.2
2022-12-18T07:05:10.633Z,-10.1
2022-12-18T07:15:09.066Z,-9.7
2022-12-18T07:25:09.707Z,-9.6
2022-12-18T07:35:10.191Z,-9.8
2022-12-18T07:45:10.345Z,-9.8
2022-12-18T07:55:10.873Z,-9.7
2022-12-18T08:05:11.410Z,-9.9
2022-12-18T08:15:11.661Z,-9.8
2022-12-18T08:25:19.445Z,-9.6
2022-12-18T08:35:12.924Z,-9.2
2022-12-18T08:45:13.189Z,-8.8
2022-12-18T08:55:13.576Z,-8.1
2022-12-18T09:05:14.109Z,-7.5
2022-12-18T09:15:14.468Z,-6.9
2022-12-18T09:25:15.082Z,-6.5
2022-12-18T09:35:15.802Z,-6.2
2022-12-18T09:55:17.063Z,-5.2
2022-12-18T10:05:17.729Z,-4.8
2022-12-18T10:15:18.107Z,-4.5
2022-12-18T10:25:18.223Z,-4.2
2022-12-18T10:35:18.411Z,-3.6
2022-12-18T11:05:26.770Z,-2.9
2022-12-18T11:15:20.025Z,-2.7
2022-12-18T11:35:20.910Z,-2.3
2022-12-18T11:45:21.828Z,-2.1
2022-12-18T12:05:22.785Z,-1.7
2022-12-18T12:15:23.065Z,-1.5
2022-12-18T12:25:30.882Z,-1.1
2022-12-18T12:35:24.508Z,-0.7
2022-12-18T12:45:24.836Z,-0.9
2022-12-18T12:55:25.596Z,-0.8
2022-12-18T13:05:33.328Z,-0.8
2022-12-18T13:15:27.292Z,-0.9
2022-12-18T13:25:27.883Z,-0.9
2022-12-18T13:35:28.391Z,-0.9
2022-12-18T13:45:29.093Z,-1
2022-12-18T13:55:36.433Z,-0.9
2022-12-18T14:05:30.484Z,-0.9
2022-12-18T14:15:31.168Z,-0.8
2022-12-18T14:45:36.086Z,-0.2
2022-12-18T14:55:33.574Z,-0.4
2022-12-18T15:05:34.546Z,-0.7
2022-12-18T15:25:35.243Z,-1.1
2022-12-18T15:35:36.147Z,-1.2
2022-12-18T15:45:36.454Z,-1.2
2022-12-18T15:55:37.234Z,-1.2
2022-12-18T16:05:37.898Z,-1.3
2022-12-18T16:15:38.713Z,-1.4
2022-12-18T16:25:39.474Z,-1.1
2022-12-18T16:35:47.331Z,-0.2
2022-12-18T17:25:42.845Z,1.1
2022-12-18T17:35:43.151Z,1.1
2022-12-18T17:55:44.407Z,1
2022-12-18T18:05:44.699Z,0.9
2022-12-18T18:15:44.917Z,0.8
2022-12-18T18:25:45.617Z,0.8
2022-12-18T18:35:54.064Z,0.8
2022-12-18T18:45:47.374Z,0.8
2022-12-18T18:55:59.192Z,0.7
2022-12-18T19:25:50.743Z,0.6
2022-12-18T19:35:49.577Z,0.6
2022-12-18T19:45:49.699Z,0.7
2022-12-18T19:55:49.860Z,0.7
2022-12-18T20:05:50.560Z,0.7
2022-12-18T20:15:51.271Z,0.8
2022-12-18T20:25:52.264Z,0.9
2022-12-18T20:35:53.186Z,1
2022-12-18T20:45:53.340Z,1
2022-12-18T21:05:54.254Z,1
2022-12-18T21:15:55.158Z,1
2022-12-18T21:25:56.262Z,0.8
2022-12-18T21:35:56.380Z,0.8
2022-12-18T21:45:57.464Z,0.8
2022-12-18T21:55:57.850Z,0.8
2022-12-18T22:06:09.099Z,1
2022-12-18T22:15:59.235Z,1.1
2022-12-18T22:25:59.389Z,1.1
2022-12-18T22:26:04.675Z,1.1
2022-12-18T22:36:05.610Z,1.1
2022-12-18T22:46:06.423Z,1
2022-12-18T22:56:06.422Z,1.1
2022-12-18T23:06:06.986Z,1.2
2022-12-18T23:16:07.707Z,1.2
2022-12-18T23:36:08.734Z,1.3
2022-12-18T23:46:09.344Z,1.4
2022-12-18T23:56:10.142Z,1.4
